Time;durP1;ratioP1;P1;durP2;ratioP2;P2;SDS_P1;SDS_P2;PMS_P1;PMS_P2;Temp;Humidity;BMP_temperature;BMP_pressure;BME280_temperature;BME280_humidity;BME280_pressure;Samples;Min_cycle;Max_cycle;Signal;HPM_P1;HPM_P2
2023/08/02 00:00:28;;;;;;;6.70;4.75;;;;;;;;;;4314878;32;316843;-86
2023/08/02 00:02:55;;;;;;;5.03;4.50;;;;;;;;;;4323920;32;316551;-86
2023/08/02 00:05:22;;;;;;;8.27;5.00;;;;;;;;;;4313469;32;317058;-86
2023/08/02 00:07:48;;;;;;;7.55;4.78;;;;;;;;;;4323941;32;316608;-87
2023/08/02 00:10:15;;;;;;;5.75;4.72;;;;;;;;;;4323829;32;317373;-86
2023/08/02 00:12:42;;;;;;;4.80;4.40;;;;;;;;;;4312854;32;316590;-86
2023/08/02 00:15:10;;;;;;;6.30;4.80;;;;;;;;;;4323199;32;316761;-87
2023/08/02 00:17:37;;;;;;;5.68;4.75;;;;;;;;;;4313928;32;316985;-87
2023/08/02 00:20:05;;;;;;;6.32;4.60;;;;;;;;;;4322917;32;316761;-87
2023/08/02 00:22:31;;;;;;;6.17;4.83;;;;;;;;;;4312945;32;317270;-88
2023/08/02 00:24:58;;;;;;;8.95;4.90;;;;;;;;;;4324117;32;317841;-87
2023/08/02 00:27:25;;;;;;;6.78;5.75;;;;;;;;;;4312860;32;316576;-88
2023/08/02 00:29:51;;;;;;;7.97;5.65;;;;;;;;;;4323292;32;338338;-87
2023/08/02 00:32:20;;;;;;;7.70;4.80;;;;;;;;;;4323682;33;316900;-86
2023/08/02 00:34:49;;;;;;;11.60;4.93;;;;;;;;;;4321721;32;416693;-87
2023/08/02 00:37:16;;;;;;;12.30;5.35;;;;;;;;;;4322432;33;317837;-87
2023/08/02 00:39:42;;;;;;;6.32;4.62;;;;;;;;;;4315334;32;337661;-87
2023/08/02 00:42:11;;;;;;;5.05;4.05;;;;;;;;;;4338334;32;317249;-87
2023/08/02 00:44:37;;;;;;;5.10;4.53;;;;;;;;;;4327788;32;317286;-87
2023/08/02 00:47:04;;;;;;;6.53;5.28;;;;;;;;;;4351089;32;316789;-86
2023/08/02 00:49:32;;;;;;;5.87;4.45;;;;;;;;;;4342701;32;317349;-88
2023/08/02 00:51:59;;;;;;;8.60;5.10;;;;;;;;;;4352670;32;316823;-88
2023/08/02 00:54:26;;;;;;;7.20;5.22;;;;;;;;;;4342354;32;317489;-87
2023/08/02 00:56:54;;;;;;;9.48;5.97;;;;;;;;;;4351924;32;316788;-86
2023/08/02 00:59:21;;;;;;;6.95;6.10;;;;;;;;;;4336713;32;317412;-87
2023/08/02 01:01:49;;;;;;;9.82;6.03;;;;;;;;;;4362951;32;316770;-87
2023/08/02 01:04:16;;;;;;;6.68;5.28;;;;;;;;;;4352046;32;316506;-86
2023/08/02 01:06:49;;;;;;;7.90;6.87;;;;;;;;;;4343110;32;316806;-88
2023/08/02 01:09:21;;;;;;;6.80;5.90;;;;;;;;;;4352992;32;316558;-88
2023/08/02 01:11:52;;;;;;;8.13;5.28;;;;;;;;;;4340552;32;416092;-88
2023/08/02 01:14:21;;;;;;;6.37;5.18;;;;;;;;;;4341817;32;316595;-88
2023/08/02 01:16:50;;;;;;;5.85;5.20;;;;;;;;;;4353162;32;317036;-88
2023/08/02 01:19:21;;;;;;;5.43;4.55;;;;;;;;;;4352811;32;317315;-87
2023/08/02 01:21:49;;;;;;;5.78;5.18;;;;;;;;;;4339364;32;416345;-88
2023/08/02 01:24:17;;;;;;;6.70;4.72;;;;;;;;;;4354351;32;316615;-89
2023/08/02 01:26:48;;;;;;;5.95;4.93;;;;;;;;;;4342803;32;416353;-88
2023/08/02 01:29:18;;;;;;;4.72;4.22;;;;;;;;;;4357336;32;316825;-88
2023/08/02 01:31:46;;;;;;;10.75;4.22;;;;;;;;;;4344053;32;416048;-89
2023/08/02 01:34:13;;;;;;;5.53;4.55;;;;;;;;;;4357253;32;318088;-87
2023/08/02 01:36:40;;;;;;;4.62;4.22;;;;;;;;;;4346005;32;337650;-86
2023/08/02 01:39:08;;;;;;;8.05;4.50;;;;;;;;;;4358172;32;316734;-87
2023/08/02 01:41:35;;;;;;;5.28;4.78;;;;;;;;;;4346934;32;316744;-87
2023/08/02 01:44:02;;;;;;;4.37;3.97;;;;;;;;;;4355698;32;317073;-88
2023/08/02 01:46:28;;;;;;;4.32;3.83;;;;;;;;;;4346556;32;317080;-87
2023/08/02 01:48:55;;;;;;;7.28;4.22;;;;;;;;;;4355644;32;317142;-87
2023/08/02 01:51:22;;;;;;;10.82;4.30;;;;;;;;;;4344311;32;317270;-88
2023/08/02 01:53:49;;;;;;;6.43;5.18;;;;;;;;;;4354869;32;318465;-87
2023/08/02 01:56:18;;;;;;;7.18;4.53;;;;;;;;;;4340334;32;317482;-87
2023/08/02 01:58:44;;;;;;;5.60;5.10;;;;;;;;;;4328104;32;418155;-87
2023/08/02 02:01:11;;;;;;;5.50;4.30;;;;;;;;;;4341119;32;316752;-86
2023/08/02 02:03:38;;;;;;;6.15;4.82;;;;;;;;;;4332119;32;317529;-87
2023/08/02 02:06:05;;;;;;;4.60;4.12;;;;;;;;;;4342313;32;344729;-88
2023/08/02 02:08:31;;;;;;;9.90;5.20;;;;;;;;;;4333768;32;317365;-87
2023/08/02 02:10:58;;;;;;;15.70;4.53;;;;;;;;;;4340429;32;316476;-85
2023/08/02 02:13:26;;;;;;;6.43;4.72;;;;;;;;;;4329323;32;318230;-85
2023/08/02 02:15:53;;;;;;;5.55;4.28;;;;;;;;;;4334360;32;316647;-86
2023/08/02 02:18:20;;;;;;;5.37;4.57;;;;;;;;;;4331610;32;317133;-87
2023/08/02 02:20:46;;;;;;;5.90;4.78;;;;;;;;;;4340045;32;316877;-86
2023/08/02 02:23:13;;;;;;;4.68;4.28;;;;;;;;;;4339947;32;316583;-86
2023/08/02 02:25:40;;;;;;;5.60;4.78;;;;;;;;;;4329689;32;316654;-86
2023/08/02 02:28:07;;;;;;;6.53;5.12;;;;;;;;;;4339106;32;317388;-86
2023/08/02 02:30:35;;;;;;;5.95;4.75;;;;;;;;;;4330517;32;317563;-86
2023/08/02 02:33:03;;;;;;;6.07;5.00;;;;;;;;;;4338773;32;346496;-86
2023/08/02 02:35:30;;;;;;;6.25;5.22;;;;;;;;;;4329889;32;317240;-86
2023/08/02 02:37:56;;;;;;;6.25;5.18;;;;;;;;;;4338723;32;316749;-86
2023/08/02 02:40:23;;;;;;;6.50;4.50;;;;;;;;;;4329282;32;316614;-86
2023/08/02 02:42:50;;;;;;;6.93;5.32;;;;;;;;;;4337903;32;344852;-86
2023/08/02 02:45:16;;;;;;;8.93;6.10;;;;;;;;;;4340096;32;317665;-85
2023/08/02 02:47:45;;;;;;;15.57;6.68;;;;;;;;;;4329916;32;317606;-85
2023/08/02 02:50:12;;;;;;;7.62;5.85;;;;;;;;;;4339047;32;338868;-85
2023/08/02 02:52:40;;;;;;;6.35;5.00;;;;;;;;;;4330834;32;316522;-85
2023/08/02 02:55:08;;;;;;;6.78;5.28;;;;;;;;;;4354710;32;316615;-85
2023/08/02 02:57:35;;;;;;;8.23;5.85;;;;;;;;;;4342587;32;347805;-85
2023/08/02 03:00:02;;;;;;;30.42;5.40;;;;;;;;;;4354564;32;316647;-85
2023/08/02 03:02:29;;;;;;;7.05;5.80;;;;;;;;;;4344190;32;317574;-86
2023/08/02 03:04:57;;;;;;;6.50;5.28;;;;;;;;;;4352992;32;317600;-85
2023/08/02 03:07:24;;;;;;;6.50;5.10;;;;;;;;;;4344615;32;316959;-86
2023/08/02 03:09:51;;;;;;;6.00;5.15;;;;;;;;;;4353251;32;317352;-86
2023/08/02 03:12:17;;;;;;;6.22;4.95;;;;;;;;;;4353982;32;316644;-86
2023/08/02 03:14:46;;;;;;;5.62;4.65;;;;;;;;;;4344433;32;317319;-86
2023/08/02 03:17:13;;;;;;;6.28;5.43;;;;;;;;;;4353994;32;316572;-85
2023/08/02 03:19:40;;;;;;;8.60;5.40;;;;;;;;;;4343419;32;317003;-85
2023/08/02 03:22:08;;;;;;;6.18;5.57;;;;;;;;;;4353365;32;316700;-85
2023/08/02 03:24:35;;;;;;;6.45;4.97;;;;;;;;;;4343311;32;319451;-85
2023/08/02 03:27:01;;;;;;;13.05;5.78;;;;;;;;;;4354045;32;317208;-86
2023/08/02 03:29:28;;;;;;;9.73;6.35;;;;;;;;;;4342968;32;318005;-86
2023/08/02 03:31:55;;;;;;;8.38;5.93;;;;;;;;;;4352533;32;316800;-86
2023/08/02 03:34:22;;;;;;;6.03;5.18;;;;;;;;;;4341375;32;317254;-87
2023/08/02 03:36:48;;;;;;;6.47;5.55;;;;;;;;;;4353536;32;316440;-86
2023/08/02 03:39:17;;;;;;;9.35;5.62;;;;;;;;;;4352796;32;317168;-86
2023/08/02 03:41:43;;;;;;;9.18;5.00;;;;;;;;;;4344119;32;317424;-86
2023/08/02 03:44:10;;;;;;;7.10;5.95;;;;;;;;;;4352646;32;317370;-85
2023/08/02 03:46:37;;;;;;;11.20;5.47;;;;;;;;;;4342735;32;316596;-86
2023/08/02 03:49:03;;;;;;;8.25;6.35;;;;;;;;;;4352994;32;318840;-86
2023/08/02 03:51:30;;;;;;;8.10;6.10;;;;;;;;;;4342848;32;317015;-86
2023/08/02 03:53:57;;;;;;;8.73;6.18;;;;;;;;;;4350689;32;316459;-86
2023/08/02 03:56:25;;;;;;;14.43;7.30;;;;;;;;;;4329186;32;316713;-86
2023/08/02 03:58:52;;;;;;;14.68;9.80;;;;;;;;;;4338579;32;318383;-86
2023/08/02 04:01:18;;;;;;;12.18;9.98;;;;;;;;;;4338363;32;318346;-87
2023/08/02 04:03:45;;;;;;;10.23;9.15;;;;;;;;;;4324648;32;417422;-87
2023/08/02 04:06:12;;;;;;;13.57;9.65;;;;;;;;;;4338115;32;317719;-87
2023/08/02 04:08:38;;;;;;;10.40;8.70;;;;;;;;;;4328862;32;318087;-87
2023/08/02 04:11:06;;;;;;;10.45;7.18;;;;;;;;;;4337268;32;317748;-87
2023/08/02 04:13:34;;;;;;;10.70;6.57;;;;;;;;;;4328527;32;318061;-87
2023/08/02 04:16:01;;;;;;;9.50;6.78;;;;;;;;;;4338529;32;318278;-87
2023/08/02 04:18:28;;;;;;;6.82;5.65;;;;;;;;;;4327632;32;316906;-85
2023/08/02 04:20:55;;;;;;;5.87;5.28;;;;;;;;;;4337091;32;317739;-85
2023/08/02 04:23:22;;;;;;;7.95;6.07;;;;;;;;;;4327199;32;321340;-86
2023/08/02 04:25:48;;;;;;;8.65;6.32;;;;;;;;;;4345855;32;316815;-85
2023/08/02 04:28:15;;;;;;;11.98;6.70;;;;;;;;;;4353519;32;317322;-86
2023/08/02 04:30:43;;;;;;;11.73;6.75;;;;;;;;;;4348765;32;356654;-86
2023/08/02 04:33:10;;;;;;;16.10;6.62;;;;;;;;;;4362219;32;317401;-85
2023/08/02 04:35:37;;;;;;;7.57;5.83;;;;;;;;;;4349225;32;353173;-85
2023/08/02 04:38:03;;;;;;;22.92;6.65;;;;;;;;;;4358703;32;316641;-85
2023/08/02 04:40:30;;;;;;;10.32;6.30;;;;;;;;;;4346068;32;318352;-85
2023/08/02 04:42:57;;;;;;;10.77;6.45;;;;;;;;;;4357374;32;317604;-85
2023/08/02 04:45:24;;;;;;;7.22;6.30;;;;;;;;;;4343468;32;318740;-85
2023/08/02 04:47:52;;;;;;;13.60;6.62;;;;;;;;;;4352914;32;317626;-85
2023/08/02 04:50:18;;;;;;;13.07;6.15;;;;;;;;;;4356506;32;317558;-85
2023/08/02 04:52:45;;;;;;;10.52;6.05;;;;;;;;;;4338766;32;417230;-85
2023/08/02 04:55:12;;;;;;;10.27;5.55;;;;;;;;;;4352098;32;345374;-85
2023/08/02 04:57:39;;;;;;;6.97;5.57;;;;;;;;;;4343284;32;317808;-85
2023/08/02 05:00:08;;;;;;;7.12;5.82;;;;;;;;;;4353466;32;316583;-84
2023/08/02 05:02:36;;;;;;;16.15;5.87;;;;;;;;;;4345080;32;317008;-84
2023/08/02 05:05:04;;;;;;;8.13;5.50;;;;;;;;;;4355807;32;318258;-84
2023/08/02 05:07:33;;;;;;;6.53;5.75;;;;;;;;;;4345221;32;316964;-84
2023/08/02 05:10:03;;;;;;;7.55;5.75;;;;;;;;;;4355975;32;316694;-86
2023/08/02 05:12:30;;;;;;;9.23;5.93;;;;;;;;;;4345249;32;317122;-84
2023/08/02 05:14:58;;;;;;;12.65;6.22;;;;;;;;;;4354752;32;317073;-84
2023/08/02 05:17:27;;;;;;;8.65;6.43;;;;;;;;;;4344727;32;318341;-87
2023/08/02 05:19:54;;;;;;;7.75;5.57;;;;;;;;;;4355434;32;317391;-86
2023/08/02 05:22:22;;;;;;;9.55;5.68;;;;;;;;;;4345803;32;317566;-84
2023/08/02 05:24:50;;;;;;;12.48;6.50;;;;;;;;;;4355248;32;316395;-85
2023/08/02 05:27:17;;;;;;;8.93;5.75;;;;;;;;;;4353843;32;317599;-85
2023/08/02 05:29:44;;;;;;;10.50;6.10;;;;;;;;;;4345915;32;316631;-86
2023/08/02 05:32:10;;;;;;;17.12;6.30;;;;;;;;;;4355008;32;318969;-85
2023/08/02 05:34:37;;;;;;;29.63;9.88;;;;;;;;;;4343790;32;317976;-85
2023/08/02 05:37:05;;;;;;;12.18;6.65;;;;;;;;;;4354093;32;317475;-85
2023/08/02 05:39:33;;;;;;;10.25;6.25;;;;;;;;;;4345769;32;318041;-85
2023/08/02 05:42:00;;;;;;;11.10;5.95;;;;;;;;;;4355173;32;317743;-85
2023/08/02 05:44:27;;;;;;;14.50;7.18;;;;;;;;;;4344506;32;318274;-85
2023/08/02 05:46:53;;;;;;;9.73;7.12;;;;;;;;;;4354994;32;318593;-86
2023/08/02 05:49:20;;;;;;;11.55;7.40;;;;;;;;;;4343801;32;316984;-86
2023/08/02 05:51:47;;;;;;;13.80;8.15;;;;;;;;;;4353993;32;322412;-84
2023/08/02 05:54:16;;;;;;;23.77;8.82;;;;;;;;;;4351866;32;318173;-84
2023/08/02 05:56:44;;;;;;;12.82;7.32;;;;;;;;;;4330605;32;318328;-91
2023/08/02 05:59:11;;;;;;;15.32;7.55;;;;;;;;;;4338226;32;317638;-84
2023/08/02 06:01:38;;;;;;;12.27;7.23;;;;;;;;;;4328040;32;320429;-85
2023/08/02 06:04:04;;;;;;;12.80;6.90;;;;;;;;;;4338646;32;317645;-85
2023/08/02 06:06:31;;;;;;;12.52;8.85;;;;;;;;;;4328687;32;318352;-85
2023/08/02 06:08:58;;;;;;;14.05;8.48;;;;;;;;;;4338548;32;317498;-85
2023/08/02 06:11:25;;;;;;;11.07;8.23;;;;;;;;;;4328659;32;318159;-86
2023/08/02 06:13:53;;;;;;;15.10;10.65;;;;;;;;;;4339245;32;318437;-85
2023/08/02 06:16:22;;;;;;;9.85;7.45;;;;;;;;;;4329805;32;319195;-86
2023/08/02 06:18:49;;;;;;;10.80;6.25;;;;;;;;;;4339049;32;316586;-85
2023/08/02 06:21:16;;;;;;;16.17;6.32;;;;;;;;;;4340505;32;318212;-85
2023/08/02 06:23:42;;;;;;;12.30;7.32;;;;;;;;;;4337749;32;318150;-86
2023/08/02 06:26:09;;;;;;;13.98;6.93;;;;;;;;;;4354283;32;318300;-85
2023/08/02 06:28:36;;;;;;;8.40;6.67;;;;;;;;;;4344544;32;323848;-86
2023/08/02 06:31:05;;;;;;;13.65;7.62;;;;;;;;;;4355333;32;316355;-86
2023/08/02 06:33:31;;;;;;;18.20;7.00;;;;;;;;;;4343439;32;318100;-86
2023/08/02 06:35:58;;;;;;;37.75;8.15;;;;;;;;;;4353418;32;318198;-84
2023/08/02 06:38:25;;;;;;;16.40;7.53;;;;;;;;;;4345241;32;317467;-85
2023/08/02 06:40:51;;;;;;;9.13;6.53;;;;;;;;;;4354681;32;318050;-85
2023/08/02 06:43:20;;;;;;;11.35;6.18;;;;;;;;;;4353332;32;317086;-84
2023/08/02 06:45:47;;;;;;;15.23;6.32;;;;;;;;;;4341283;32;416826;-86
2023/08/02 06:48:18;;;;;;;9.65;7.53;;;;;;;;;;4351465;32;317603;-84
2023/08/02 06:50:45;;;;;;;8.43;6.37;;;;;;;;;;4346077;32;418117;-83
2023/08/02 06:53:12;;;;;;;10.00;5.53;;;;;;;;;;4353952;32;317163;-85
2023/08/02 06:55:38;;;;;;;8.73;6.65;;;;;;;;;;4344156;32;317478;-85
2023/08/02 06:58:05;;;;;;;7.78;6.57;;;;;;;;;;4353100;32;317651;-85
2023/08/02 07:00:32;;;;;;;7.90;6.20;;;;;;;;;;4344654;32;317210;-85
2023/08/02 07:02:59;;;;;;;7.80;6.32;;;;;;;;;;4352986;32;317249;-85
2023/08/02 07:05:29;;;;;;;8.27;6.05;;;;;;;;;;4343146;32;317238;-85
2023/08/02 07:07:55;;;;;;;6.65;5.87;;;;;;;;;;4353130;32;317091;-85
2023/08/02 07:10:22;;;;;;;7.15;6.15;;;;;;;;;;4341877;32;345561;-85
2023/08/02 07:12:49;;;;;;;7.03;5.87;;;;;;;;;;4352967;32;317347;-85
2023/08/02 07:15:17;;;;;;;10.73;7.00;;;;;;;;;;4352975;32;316519;-85
2023/08/02 07:17:44;;;;;;;10.50;6.78;;;;;;;;;;4342646;32;317659;-85
2023/08/02 07:20:11;;;;;;;10.77;6.90;;;;;;;;;;4353321;32;318323;-85
2023/08/02 07:22:40;;;;;;;8.30;6.67;;;;;;;;;;4341881;32;345263;-85
2023/08/02 07:25:08;;;;;;;7.78;6.43;;;;;;;;;;4352813;32;317260;-85
2023/08/02 07:27:35;;;;;;;9.80;6.37;;;;;;;;;;4344210;32;316887;-85
2023/08/02 07:30:02;;;;;;;11.12;5.70;;;;;;;;;;4353948;32;316718;-85
2023/08/02 07:32:29;;;;;;;6.95;6.12;;;;;;;;;;4342445;32;317499;-85
2023/08/02 07:34:57;;;;;;;7.07;5.68;;;;;;;;;;4353275;32;324140;-85
2023/08/02 07:37:24;;;;;;;6.57;5.97;;;;;;;;;;4344045;32;317296;-86
2023/08/02 07:39:52;;;;;;;15.05;5.78;;;;;;;;;;4353807;32;316686;-85
2023/08/02 07:42:19;;;;;;;11.45;5.70;;;;;;;;;;4353756;32;318425;-85
2023/08/02 07:45:01;;;;;;;5.62;5.05;;;;;;;;;;4334027;32;417595;-85
2023/08/02 07:47:28;;;;;;;12.25;6.12;;;;;;;;;;4343771;32;317358;-85
2023/08/02 07:49:54;;;;;;;9.95;6.60;;;;;;;;;;4352160;32;318440;-84
2023/08/02 07:52:21;;;;;;;7.47;6.20;;;;;;;;;;4341702;32;386929;-85
2023/08/02 07:54:48;;;;;;;9.25;6.28;;;;;;;;;;4337854;32;317363;-85
2023/08/02 07:57:16;;;;;;;9.93;6.05;;;;;;;;;;4322866;32;317490;-85
2023/08/02 07:59:42;;;;;;;11.75;5.72;;;;;;;;;;4314181;32;317467;-85
2023/08/02 08:02:09;;;;;;;11.12;6.60;;;;;;;;;;4322817;32;318116;-84
2023/08/02 08:04:36;;;;;;;17.67;6.87;;;;;;;;;;4313676;32;318496;-84
2023/08/02 08:07:02;;;;;;;9.73;6.47;;;;;;;;;;4323774;32;317631;-84
2023/08/02 08:09:29;;;;;;;11.85;6.18;;;;;;;;;;4312948;32;317048;-86
2023/08/02 08:11:56;;;;;;;9.25;6.07;;;;;;;;;;4323222;32;332756;-84
2023/08/02 08:14:24;;;;;;;6.53;5.70;;;;;;;;;;4314129;32;317604;-85
2023/08/02 08:16:51;;;;;;;8.93;6.43;;;;;;;;;;4344566;32;317051;-85
2023/08/02 08:19:17;;;;;;;8.02;6.68;;;;;;;;;;4351822;32;317565;-85
2023/08/02 08:21:44;;;;;;;10.82;6.55;;;;;;;;;;4340735;32;369657;-85
2023/08/02 08:24:11;;;;;;;9.10;6.45;;;;;;;;;;4353161;32;317560;-85
2023/08/02 08:26:38;;;;;;;6.82;5.90;;;;;;;;;;4342395;32;317089;-85
2023/08/02 08:29:04;;;;;;;7.57;6.80;;;;;;;;;;4352150;32;316469;-85
2023/08/02 08:31:32;;;;;;;11.10;6.57;;;;;;;;;;4343379;32;327270;-85
2023/08/02 08:33:59;;;;;;;9.50;6.00;;;;;;;;;;4351313;32;324947;-85
2023/08/02 08:36:29;;;;;;;7.70;5.82;;;;;;;;;;4342947;32;317653;-85
2023/08/02 08:38:56;;;;;;;6.55;5.78;;;;;;;;;;4352852;32;317292;-85
2023/08/02 08:41:22;;;;;;;6.87;6.03;;;;;;;;;;4343037;32;316962;-85
2023/08/02 08:43:50;;;;;;;9.68;5.65;;;;;;;;;;4352023;32;317117;-85
2023/08/02 08:46:17;;;;;;;8.70;6.12;;;;;;;;;;4352067;32;316530;-85
2023/08/02 08:48:45;;;;;;;11.23;6.30;;;;;;;;;;4341937;32;317478;-85
2023/08/02 08:51:14;;;;;;;8.52;6.43;;;;;;;;;;4352090;32;318301;-85
2023/08/02 08:53:44;;;;;;;8.75;5.95;;;;;;;;;;4341849;32;317167;-85
2023/08/02 08:56:11;;;;;;;6.85;5.75;;;;;;;;;;4336935;32;316747;-85
2023/08/02 08:58:39;;;;;;;7.25;5.80;;;;;;;;;;4328050;32;332581;-85
2023/08/02 09:01:06;;;;;;;7.55;6.28;;;;;;;;;;4336968;32;316957;-85
2023/08/02 09:03:34;;;;;;;9.73;6.23;;;;;;;;;;4326288;32;344159;-85
2023/08/02 09:06:03;;;;;;;7.15;6.05;;;;;;;;;;4351757;32;316124;-85
2023/08/02 09:08:36;;;;;;;7.12;5.72;;;;;;;;;;4349939;32;316165;-85
2023/08/02 09:11:03;;;;;;;8.10;5.97;;;;;;;;;;4353923;32;315843;-85
2023/08/02 09:13:30;;;;;;;8.80;5.62;;;;;;;;;;4339857;32;316752;-86
2023/08/02 09:16:07;;;;;;;6.30;5.47;;;;;;;;;;4346911;32;316255;-86
2023/08/02 09:18:35;;;;;;;9.07;5.47;;;;;;;;;;4328281;32;317058;-85
2023/08/02 09:21:04;;;;;;;6.45;5.32;;;;;;;;;;4338413;32;316495;-85
2023/08/02 09:23:30;;;;;;;8.32;6.00;;;;;;;;;;4326853;32;317319;-85
2023/08/02 09:26:10;;;;;;;8.07;6.07;;;;;;;;;;4329739;32;350780;-85
2023/08/02 09:28:37;;;;;;;13.50;5.43;;;;;;;;;;4327235;32;317344;-85
2023/08/02 09:31:15;;;;;;;6.05;4.97;;;;;;;;;;4338190;32;318626;-85
2023/08/02 09:33:49;;;;;;;5.43;4.93;;;;;;;;;;4327116;32;317931;-85
2023/08/02 09:36:24;;;;;;;8.15;5.40;;;;;;;;;;4331903;32;317172;-85
2023/08/02 09:38:58;;;;;;;5.90;4.95;;;;;;;;;;4323718;32;416428;-85
2023/08/02 09:41:26;;;;;;;7.80;4.95;;;;;;;;;;4328289;32;317537;-84
2023/08/02 09:43:53;;;;;;;6.55;5.22;;;;;;;;;;4336620;32;317239;-84
2023/08/02 09:46:24;;;;;;;6.20;4.87;;;;;;;;;;4335910;32;316777;-84
2023/08/02 09:48:51;;;;;;;11.88;5.20;;;;;;;;;;4340312;32;316660;-84
2023/08/02 09:51:17;;;;;;;8.93;5.07;;;;;;;;;;4339731;32;317622;-84
2023/08/02 09:53:54;;;;;;;9.15;5.22;;;;;;;;;;4338470;32;317587;-84
2023/08/02 09:56:23;;;;;;;12.77;6.60;;;;;;;;;;4318410;32;317355;-85
2023/08/02 09:58:56;;;;;;;8.25;4.93;;;;;;;;;;4324369;32;317629;-85
2023/08/02 10:01:24;;;;;;;5.45;4.57;;;;;;;;;;4315317;32;317479;-85
2023/08/02 10:03:55;;;;;;;5.68;4.57;;;;;;;;;;4325275;32;316596;-84
2023/08/02 10:06:24;;;;;;;6.90;4.95;;;;;;;;;;4315671;32;327571;-84
2023/08/02 10:08:55;;;;;;;6.07;4.85;;;;;;;;;;4327959;32;336242;-84
2023/08/02 10:11:24;;;;;;;8.15;5.50;;;;;;;;;;4329669;32;317229;-84
2023/08/02 10:13:53;;;;;;;10.45;4.53;;;;;;;;;;4338827;32;316674;-84
2023/08/02 10:16:19;;;;;;;8.20;4.85;;;;;;;;;;4338040;32;354944;-85
2023/08/02 10:18:47;;;;;;;5.82;4.75;;;;;;;;;;4326214;32;415353;-85
2023/08/02 10:21:15;;;;;;;5.75;4.62;;;;;;;;;;4339718;32;336773;-84
2023/08/02 10:23:43;;;;;;;10.10;5.87;;;;;;;;;;4330524;32;317052;-85
2023/08/02 10:26:11;;;;;;;6.22;5.35;;;;;;;;;;4340169;32;317799;-85
2023/08/02 10:28:40;;;;;;;10.83;5.20;;;;;;;;;;4328503;32;338584;-85
2023/08/02 10:31:08;;;;;;;6.03;5.07;;;;;;;;;;4339978;32;317696;-84
2023/08/02 10:33:35;;;;;;;7.68;5.32;;;;;;;;;;4329861;32;317374;-85
2023/08/02 10:36:03;;;;;;;10.20;5.12;;;;;;;;;;4338997;32;317359;-85
2023/08/02 10:38:47;;;;;;;5.20;4.55;;;;;;;;;;4328685;32;318435;-85
2023/08/02 10:41:16;;;;;;;5.55;4.75;;;;;;;;;;4339017;32;317662;-83
2023/08/02 10:44:12;;;;;;;6.78;5.12;;;;;;;;;;4330132;32;317454;-83
2023/08/02 10:46:39;;;;;;;5.60;4.70;;;;;;;;;;4330151;32;316762;-82
2023/08/02 10:49:49;;;;;;;10.32;5.18;;;;;;;;;;4339584;32;317752;-82
2023/08/02 10:52:30;;;;;;;6.72;5.50;;;;;;;;;;4335776;32;418279;-83
2023/08/02 10:55:11;;;;;;;6.22;4.97;;;;;;;;;;4333295;32;418828;-82
2023/08/02 10:57:41;;;;;;;5.95;5.18;;;;;;;;;;4344203;32;317125;-82
2023/08/02 11:00:19;;;;;;;6.00;5.12;;;;;;;;;;4347882;32;343348;-82
2023/08/02 11:02:48;;;;;;;7.65;4.93;;;;;;;;;;4328347;32;317268;-82
2023/08/02 11:05:18;;;;;;;5.82;5.15;;;;;;;;;;4344129;32;316923;-82
2023/08/02 11:07:58;;;;;;;5.87;5.18;;;;;;;;;;4341250;32;416496;-82
2023/08/02 11:10:24;;;;;;;6.18;5.50;;;;;;;;;;4345353;32;316714;-83
2023/08/02 11:12:54;;;;;;;8.73;5.10;;;;;;;;;;4354175;32;316898;-83
2023/08/02 11:15:21;;;;;;;6.32;5.68;;;;;;;;;;4342192;32;343421;-84
2023/08/02 11:17:48;;;;;;;7.62;5.10;;;;;;;;;;4352029;32;325208;-83
2023/08/02 11:20:16;;;;;;;7.15;5.07;;;;;;;;;;4354230;32;316705;-85
2023/08/02 11:22:42;;;;;;;9.32;5.12;;;;;;;;;;4343497;32;357532;-85
2023/08/02 11:25:09;;;;;;;5.68;5.05;;;;;;;;;;4354210;32;316933;-85
2023/08/02 11:27:36;;;;;;;6.22;5.22;;;;;;;;;;4344337;32;316986;-85
2023/08/02 11:30:07;;;;;;;6.55;4.68;;;;;;;;;;4352838;32;317529;-84
2023/08/02 11:32:36;;;;;;;6.22;4.80;;;;;;;;;;4346127;32;316499;-84
2023/08/02 11:35:04;;;;;;;6.32;4.75;;;;;;;;;;4354086;32;317394;-84
2023/08/02 11:37:31;;;;;;;5.28;4.75;;;;;;;;;;4344226;32;317757;-83
2023/08/02 11:40:00;;;;;;;9.10;4.97;;;;;;;;;;4353396;32;317730;-84
2023/08/02 11:42:27;;;;;;;8.85;4.75;;;;;;;;;;4343049;32;317396;-83
2023/08/02 11:44:54;;;;;;;7.80;4.65;;;;;;;;;;4353721;32;316838;-83
2023/08/02 11:47:22;;;;;;;4.90;4.40;;;;;;;;;;4341652;32;379995;-84
2023/08/02 11:49:52;;;;;;;9.20;4.53;;;;;;;;;;4352785;32;316809;-85
2023/08/02 11:52:26;;;;;;;9.70;5.20;;;;;;;;;;4353477;32;316821;-83
2023/08/02 11:54:54;;;;;;;5.35;4.85;;;;;;;;;;4329212;32;415994;-83
2023/08/02 11:57:22;;;;;;;4.45;4.12;;;;;;;;;;4313389;32;317399;-83
2023/08/02 11:59:49;;;;;;;5.82;5.03;;;;;;;;;;4322628;32;326921;-83
2023/08/02 12:02:25;;;;;;;5.60;5.00;;;;;;;;;;4335843;32;317652;-83
2023/08/02 12:04:51;;;;;;;5.05;4.55;;;;;;;;;;4341082;32;417265;-83
2023/08/02 12:07:25;;;;;;;8.13;4.82;;;;;;;;;;4353464;32;316850;-83
2023/08/02 12:09:52;;;;;;;5.87;4.75;;;;;;;;;;4331475;32;416166;-83
2023/08/02 12:12:19;;;;;;;6.18;4.68;;;;;;;;;;4337683;32;317277;-83
2023/08/02 12:14:46;;;;;;;8.00;5.28;;;;;;;;;;4336753;32;416672;-83
2023/08/02 12:17:20;;;;;;;7.72;4.40;;;;;;;;;;4339991;32;317329;-83
2023/08/02 12:19:48;;;;;;;5.60;4.57;;;;;;;;;;4341842;32;416049;-83
2023/08/02 12:22:17;;;;;;;5.40;4.55;;;;;;;;;;4356549;32;317163;-83
2023/08/02 12:24:44;;;;;;;5.05;4.60;;;;;;;;;;4342503;32;316607;-83
2023/08/02 12:27:15;;;;;;;8.48;4.53;;;;;;;;;;4351963;32;316999;-83
2023/08/02 12:29:42;;;;;;;8.18;4.95;;;;;;;;;;4343535;32;317733;-83
2023/08/02 12:32:10;;;;;;;6.40;4.45;;;;;;;;;;4352609;32;317310;-83
2023/08/02 12:34:37;;;;;;;5.13;4.50;;;;;;;;;;4342704;32;316649;-83
2023/08/02 12:37:06;;;;;;;8.68;4.97;;;;;;;;;;4353485;32;317301;-83
2023/08/02 12:39:33;;;;;;;5.85;4.60;;;;;;;;;;4342205;32;317035;-83
2023/08/02 12:41:59;;;;;;;5.53;4.80;;;;;;;;;;4352966;32;316805;-83
2023/08/02 12:44:26;;;;;;;5.32;4.20;;;;;;;;;;4343352;32;317711;-83
2023/08/02 12:46:53;;;;;;;5.00;4.50;;;;;;;;;;4351605;32;316808;-84
2023/08/02 12:49:20;;;;;;;8.23;4.15;;;;;;;;;;4350438;32;317444;-84
2023/08/02 12:51:47;;;;;;;7.62;5.37;;;;;;;;;;4352098;32;317332;-83
2023/08/02 12:54:15;;;;;;;10.18;4.55;;;;;;;;;;4351970;32;340242;-83
2023/08/02 12:56:42;;;;;;;6.20;4.47;;;;;;;;;;4341620;32;317772;-83
2023/08/02 12:59:08;;;;;;;33.63;30.35;;;;;;;;;;4351948;32;316911;-83
2023/08/02 13:13:07;;;;;;;4.87;3.97;;;;;;;;;;4457971;31;20383;-84
2023/08/02 13:15:34;;;;;;;5.80;4.22;;;;;;;;;;4417012;32;316034;-83
2023/08/02 13:18:01;;;;;;;5.25;4.15;;;;;;;;;;4426082;32;317363;-84
2023/08/02 13:20:28;;;;;;;7.37;3.90;;;;;;;;;;4416513;32;317076;-84
2023/08/02 13:22:55;;;;;;;4.55;3.62;;;;;;;;;;4426729;32;317151;-84
2023/08/02 13:25:23;;;;;;;4.78;3.80;;;;;;;;;;4415135;32;317657;-84
2023/08/02 13:27:50;;;;;;;4.57;3.62;;;;;;;;;;4426496;32;317153;-84
2023/08/02 13:30:18;;;;;;;4.55;4.15;;;;;;;;;;4425407;32;316987;-85
2023/08/02 13:32:45;;;;;;;5.43;4.25;;;;;;;;;;4428663;32;418036;-86
2023/08/02 13:35:12;;;;;;;8.27;4.18;;;;;;;;;;4440612;32;316731;-86
2023/08/02 13:37:39;;;;;;;6.12;4.60;;;;;;;;;;4431983;32;317286;-83
2023/08/02 13:40:07;;;;;;;4.40;4.00;;;;;;;;;;4441675;32;316682;-83
2023/08/02 13:42:33;;;;;;;6.47;4.05;;;;;;;;;;4431707;32;316796;-84
2023/08/02 13:45:00;;;;;;;6.45;4.22;;;;;;;;;;4442124;32;317207;-84
2023/08/02 13:47:28;;;;;;;9.98;4.07;;;;;;;;;;4430548;32;316997;-84
2023/08/02 13:49:55;;;;;;;4.43;4.03;;;;;;;;;;4440908;32;317173;-84
2023/08/02 13:52:22;;;;;;;6.35;3.30;;;;;;;;;;4430762;32;316658;-84
2023/08/02 13:54:49;;;;;;;4.80;4.32;;;;;;;;;;4424481;32;316867;-85
2023/08/02 13:57:15;;;;;;;5.47;4.35;;;;;;;;;;4425992;32;323528;-84
2023/08/02 13:59:42;;;;;;;4.72;4.20;;;;;;;;;;4416397;32;317223;-85
2023/08/02 14:02:10;;;;;;;6.35;3.90;;;;;;;;;;4425592;32;316826;-84
2023/08/02 14:04:38;;;;;;;12.55;5.00;;;;;;;;;;4416068;32;317423;-84
2023/08/02 14:07:05;;;;;;;5.07;4.15;;;;;;;;;;4426049;32;318486;-84
2023/08/02 14:09:32;;;;;;;6.15;4.05;;;;;;;;;;4414210;32;316532;-85
2023/08/02 14:11:58;;;;;;;6.62;3.65;;;;;;;;;;4424554;32;317473;-85
2023/08/02 14:14:25;;;;;;;6.18;3.08;;;;;;;;;;4405204;32;317044;-85
2023/08/02 14:16:52;;;;;;;4.60;3.65;;;;;;;;;;4415439;32;316470;-85
2023/08/02 14:19:19;;;;;;;6.35;3.87;;;;;;;;;;4415018;32;317107;-85
2023/08/02 14:21:47;;;;;;;4.55;3.85;;;;;;;;;;4401700;32;417949;-86
2023/08/02 14:24:14;;;;;;;4.68;3.65;;;;;;;;;;4414652;32;317501;-85
2023/08/02 14:26:41;;;;;;;5.37;3.58;;;;;;;;;;4404495;32;316621;-86
2023/08/02 14:29:08;;;;;;;4.10;3.70;;;;;;;;;;4415620;32;316326;-85
2023/08/02 14:31:35;;;;;;;6.57;4.07;;;;;;;;;;4405558;32;317306;-86
2023/08/02 14:34:02;;;;;;;5.30;4.68;;;;;;;;;;4414690;32;316636;-86
2023/08/02 14:36:29;;;;;;;4.63;3.20;;;;;;;;;;4404333;32;317190;-86
2023/08/02 14:38:57;;;;;;;4.53;3.60;;;;;;;;;;4415266;32;317270;-85
2023/08/02 14:41:23;;;;;;;4.18;2.95;;;;;;;;;;4405544;32;317144;-85